createdAt,value
2022-10-01T00:02:57.350Z,93.49
2022-10-01T00:06:02.679Z,93.12
2022-10-01T00:09:05.222Z,93.14
2022-10-01T00:12:08.128Z,93.55
2022-10-01T00:15:13.543Z,93.25
2022-10-01T00:18:19.178Z,93.43
2022-10-01T00:21:24.100Z,94.71
2022-10-01T00:24:27.057Z,93.47
2022-10-01T00:27:30.165Z,93.73
2022-10-01T00:30:37.209Z,94.34
2022-10-01T00:33:42.710Z,96.62
2022-10-01T00:36:45.486Z,99.75
2022-10-01T00:39:48.019Z,98.01
2022-10-01T00:42:50.804Z,98.05
2022-10-01T00:45:56.106Z,97.21
2022-10-01T00:49:02.874Z,96.96
2022-10-01T00:52:09.729Z,96.17
2022-10-01T00:55:27.356Z,95.82
2022-10-01T00:58:30.110Z,95.67
2022-10-01T01:01:34.235Z,95.38
2022-10-01T01:04:39.407Z,95.63
2022-10-01T01:07:45.524Z,95.48
2022-10-01T01:11:26.892Z,95.08
2022-10-01T01:14:38.550Z,95.11
2022-10-01T01:18:04.482Z,95.05
2022-10-01T01:21:41.089Z,94.72
2022-10-01T01:24:49.506Z,95.05
2022-10-01T01:28:32.884Z,95.04
2022-10-01T01:31:41.932Z,94.99
2022-10-01T01:34:47.146Z,95.10
2022-10-01T01:37:56.203Z,94.84
2022-10-01T01:41:01.027Z,94.92
2022-10-01T01:44:06.933Z,95.46
2022-10-01T01:47:10.711Z,95.99
2022-10-01T01:50:15.439Z,95.30
2022-10-01T01:53:20.216Z,97.28
2022-10-01T01:56:23.365Z,96.64
2022-10-01T01:59:27.250Z,95.65
2022-10-01T02:02:33.357Z,95.91
2022-10-01T02:05:43.391Z,95.94
2022-10-01T02:09:25.250Z,95.69
2022-10-01T02:12:40.279Z,95.37
2022-10-01T02:16:18.902Z,95.33
2022-10-01T02:19:33.751Z,95.22
2022-10-01T02:22:40.271Z,95.13
2022-10-01T02:25:46.086Z,94.75
2022-10-01T02:28:49.543Z,94.90
2022-10-01T02:31:55.547Z,94.87
2022-10-01T02:34:58.531Z,94.82
2022-10-01T02:38:05.116Z,94.84
2022-10-01T02:41:11.620Z,94.92
2022-10-01T02:44:17.398Z,94.92
2022-10-01T02:47:43.678Z,94.97
2022-10-01T02:50:54.229Z,95.05
2022-10-01T02:54:03.544Z,94.96
2022-10-01T02:57:26.899Z,95.41
2022-10-01T03:00:30.062Z,95.23
2022-10-01T03:03:32.862Z,95.58
2022-10-01T03:06:35.899Z,95.51
2022-10-01T03:09:38.666Z,95.49
2022-10-01T03:12:42.961Z,95.57
2022-10-01T03:15:50.368Z,95.56
2022-10-01T03:18:53.115Z,95.27
2022-10-01T03:21:56.531Z,95.57
2022-10-01T03:24:59.114Z,95.53
2022-10-01T03:28:02.137Z,95.57
2022-10-01T03:31:06.661Z,95.51
2022-10-01T03:34:09.542Z,96.35
2022-10-01T03:37:12.070Z,95.72
2022-10-01T03:40:14.992Z,95.26
2022-10-01T03:43:17.407Z,95.42
2022-10-01T03:46:20.260Z,95.65
2022-10-01T03:49:22.872Z,96.12
2022-10-01T03:52:25.703Z,96.03
2022-10-01T03:55:28.443Z,96.26
2022-10-01T03:58:31.284Z,96.57
2022-10-01T04:01:34.072Z,96.30
2022-10-01T04:04:37.118Z,95.87
2022-10-01T04:07:41.661Z,95.95
2022-10-01T04:10:44.651Z,95.91
2022-10-01T04:13:47.331Z,95.91
2022-10-01T04:16:52.531Z,95.75
2022-10-01T04:19:57.712Z,96.67
2022-10-01T04:23:00.981Z,96.28
2022-10-01T04:26:03.782Z,96.28
2022-10-01T04:29:06.954Z,95.84
2022-10-01T04:32:09.356Z,95.72
2022-10-01T04:35:12.117Z,95.59
2022-10-01T04:38:17.029Z,95.71
2022-10-01T04:41:20.628Z,96.02
2022-10-01T04:44:23.194Z,95.89
2022-10-01T04:47:26.015Z,95.82
2022-10-01T04:50:29.026Z,96.14
2022-10-01T04:53:31.849Z,96.15
2022-10-01T04:56:34.287Z,95.95
2022-10-01T04:59:37.317Z,96.27
2022-10-01T05:02:39.759Z,96.95
2022-10-01T05:05:42.680Z,96.57
2022-10-01T05:08:45.397Z,96.99
2022-10-01T05:11:52.021Z,96.68
2022-10-01T05:14:55.783Z,96.75
2022-10-01T05:17:58.609Z,96.74
2022-10-01T05:21:05.666Z,96.60
2022-10-01T05:24:08.602Z,96.58
2022-10-01T05:27:13.329Z,96.48
2022-10-01T05:30:22.226Z,96.38
2022-10-01T05:33:24.704Z,96.60
2022-10-01T05:36:27.470Z,96.54
2022-10-01T05:39:30.444Z,96.64
2022-10-01T05:42:33.157Z,96.66
2022-10-01T05:45:35.882Z,97.30
2022-10-01T05:48:38.759Z,98.08
2022-10-01T05:51:41.200Z,97.85
2022-10-01T05:54:44.014Z,97.30
2022-10-01T05:57:54.330Z,97.34
2022-10-01T06:00:57.234Z,97.32
2022-10-01T06:04:00.126Z,97.47
2022-10-01T06:07:02.657Z,97.16
2022-10-01T06:10:06.377Z,97.08
2022-10-01T06:13:08.789Z,97.00
2022-10-01T06:16:12.544Z,97.29
2022-10-01T06:19:17.441Z,97.58
2022-10-01T06:22:27.348Z,97.44
2022-10-01T06:25:30.388Z,97.65
2022-10-01T06:28:33.295Z,97.31
2022-10-01T06:31:36.058Z,97.30
2022-10-01T06:34:39.103Z,97.76
2022-10-01T06:37:45.889Z,98.29
2022-10-01T06:41:14.106Z,98.13
2022-10-01T06:44:34.897Z,98.37
2022-10-01T06:47:39.845Z,98.57
2022-10-01T06:50:44.794Z,98.42
2022-10-01T06:53:48.002Z,98.51
2022-10-01T06:56:58.678Z,98.35
2022-10-01T07:00:06.606Z,98.15
2022-10-01T07:03:18.484Z,98.03
2022-10-01T07:06:21.267Z,98.04
2022-10-01T07:09:34.757Z,97.82
2022-10-01T07:13:14.543Z,97.78
2022-10-01T07:16:17.006Z,97.98
2022-10-01T07:19:19.948Z,98.01
2022-10-01T07:22:33.840Z,98.21
2022-10-01T07:25:43.701Z,98.03
2022-10-01T07:28:46.678Z,97.91
2022-10-01T07:32:14.157Z,98.08
2022-10-01T07:35:38.121Z,98.50
2022-10-01T07:39:17.288Z,98.31
2022-10-01T07:42:48.726Z,99.79
2022-10-01T07:45:59.155Z,98.64
2022-10-01T07:49:16.840Z,98.72
2022-10-01T07:52:19.300Z,98.04
2022-10-01T07:55:23.838Z,97.95
2022-10-01T07:58:26.566Z,97.95
2022-10-01T08:01:31.764Z,98.18
2022-10-01T08:04:53.597Z,98.13
2022-10-01T08:08:07.109Z,98.46
2022-10-01T08:11:10.432Z,97.92
2022-10-01T08:14:12.933Z,97.96
2022-10-01T08:17:16.045Z,98.07
2022-10-01T08:20:19.811Z,97.76
2022-10-01T08:23:22.690Z,97.47
2022-10-01T08:26:25.248Z,97.41
2022-10-01T08:29:27.999Z,97.29
2022-10-01T08:32:31.262Z,97.24
2022-10-01T08:35:34.373Z,96.93
2022-10-01T08:38:37.526Z,97.01
2022-10-01T08:41:49.198Z,97.03
2022-10-01T08:44:52.379Z,96.27
2022-10-01T08:48:01.479Z,96.42
2022-10-01T08:51:06.206Z,96.94
2022-10-01T08:54:29.516Z,96.71
2022-10-01T08:57:50.006Z,96.29
2022-10-01T09:00:52.939Z,96.35
2022-10-01T09:03:56.346Z,97.01
2022-10-01T09:07:13.438Z,96.66
2022-10-01T09:10:31.757Z,96.50
2022-10-01T09:13:52.986Z,96.49
2022-10-01T09:17:14.954Z,96.43
2022-10-01T09:20:25.804Z,96.54
2022-10-01T09:23:30.330Z,96.44
2022-10-01T09:26:34.562Z,96.69
2022-10-01T09:29:43.581Z,96.52
2022-10-01T09:32:54.192Z,96.79
2022-10-01T09:36:35.270Z,96.12
2022-10-01T09:39:56.557Z,96.21
2022-10-01T09:42:59.209Z,96.08
2022-10-01T09:46:03.263Z,96.05
2022-10-01T09:49:13.534Z,95.78
2022-10-01T09:52:28.702Z,96.09
2022-10-01T09:55:38.729Z,96.18
2022-10-01T09:58:47.561Z,96.17
2022-10-01T10:01:55.048Z,96.51
2022-10-01T10:05:10.530Z,96.18
2022-10-01T10:08:25.779Z,95.32
2022-10-01T10:11:31.514Z,94.94
2022-10-01T10:14:36.114Z,95.07
2022-10-01T10:17:41.361Z,94.42
2022-10-01T10:20:45.596Z,94.24
2022-10-01T10:23:49.617Z,94.11
2022-10-01T10:27:01.080Z,93.70
2022-10-01T10:30:07.135Z,92.95
2022-10-01T10:33:14.069Z,92.41
2022-10-01T10:36:17.222Z,92.10
2022-10-01T10:39:29.364Z,91.81
2022-10-01T10:42:33.371Z,92.02
2022-10-01T10:45:38.716Z,91.49
2022-10-01T10:48:45.888Z,91.09
2022-10-01T10:51:56.330Z,90.16
2022-10-01T10:55:00.813Z,90.87
2022-10-01T10:58:19.591Z,90.37
2022-10-01T11:01:28.231Z,90.25
2022-10-01T11:04:38.316Z,89.58
2022-10-01T11:07:44.284Z,89.16
2022-10-01T11:10:56.520Z,87.01
2022-10-01T11:14:22.801Z,87.96
2022-10-01T11:17:44.202Z,89.15
2022-10-01T11:21:18.796Z,87.37
2022-10-01T11:24:34.444Z,86.33
2022-10-01T11:28:14.638Z,85.47
2022-10-01T11:31:47.675Z,84.60
2022-10-01T11:34:53.418Z,84.71
2022-10-01T11:38:17.968Z,83.69
2022-10-01T11:41:26.642Z,84.21
2022-10-01T11:44:38.057Z,84.53
2022-10-01T11:48:02.044Z,83.27
2022-10-01T11:51:12.528Z,83.98
2022-10-01T11:54:18.884Z,83.57
2022-10-01T11:57:40.460Z,83.82
2022-10-01T12:01:01.498Z,84.03
2022-10-01T12:04:17.711Z,84.09
2022-10-01T12:07:36.727Z,83.70
2022-10-01T12:11:00.056Z,82.22
2022-10-01T12:14:09.852Z,83.42
2022-10-01T12:17:38.565Z,82.17
2022-10-01T12:20:44.865Z,82.04
2022-10-01T12:23:52.602Z,81.82
2022-10-01T12:27:06.570Z,83.56
2022-10-01T12:30:41.854Z,83.48
2022-10-01T12:33:59.469Z,83.89
2022-10-01T12:37:12.759Z,83.46
2022-10-01T12:40:20.524Z,83.58
2022-10-01T12:43:42.206Z,81.73
2022-10-01T12:47:07.132Z,81.30
2022-10-01T12:50:56.961Z,81.52
2022-10-01T12:54:05.310Z,82.69
2022-10-01T12:57:37.074Z,83.71
2022-10-01T13:00:49.589Z,84.15
2022-10-01T13:04:08.997Z,85.02
2022-10-01T13:07:20.512Z,85.68
2022-10-01T13:10:29.840Z,84.99
2022-10-01T13:13:33.831Z,85.18
2022-10-01T13:16:39.959Z,85.23
2022-10-01T13:19:58.356Z,85.62
2022-10-01T13:23:18.970Z,84.98
2022-10-01T13:26:41.762Z,82.51
2022-10-01T13:30:24.496Z,81.99
2022-10-01T13:33:32.335Z,82.50
2022-10-01T13:36:36.432Z,82.35
2022-10-01T13:39:43.472Z,82.28
2022-10-01T13:42:47.346Z,82.15
2022-10-01T13:45:54.379Z,82.38
2022-10-01T13:49:22.473Z,81.75
2022-10-01T13:52:25.338Z,80.96
2022-10-01T13:55:30.059Z,80.32
2022-10-01T13:58:34.755Z,81.70
2022-10-01T14:01:40.685Z,81.88
2022-10-01T14:04:44.030Z,82.15
2022-10-01T14:07:47.882Z,80.05
2022-10-01T14:11:16.823Z,82.08
2022-10-01T14:14:50.565Z,84.01
2022-10-01T14:17:55.783Z,85.40
2022-10-01T14:21:13.682Z,86.75
2022-10-01T14:24:54.159Z,87.20
2022-10-01T14:28:14.951Z,87.46
2022-10-01T14:31:24.307Z,87.40
2022-10-01T14:34:36.918Z,88.29
2022-10-01T14:37:40.511Z,88.23
2022-10-01T14:40:43.666Z,89.12
2022-10-01T14:43:46.766Z,89.28
2022-10-01T14:46:59.267Z,89.55
2022-10-01T14:50:14.890Z,90.45
2022-10-01T14:53:19.254Z,89.48
2022-10-01T14:56:22.900Z,88.43
2022-10-01T14:59:36.418Z,88.98
2022-10-01T15:02:49.382Z,89.11
2022-10-01T15:05:52.120Z,89.25
2022-10-01T15:08:56.298Z,89.28
2022-10-01T15:11:59.444Z,89.46
2022-10-01T15:15:02.284Z,89.97
2022-10-01T15:18:05.295Z,89.38
2022-10-01T15:21:15.701Z,89.87
2022-10-01T15:24:37.570Z,89.90
2022-10-01T15:27:40.951Z,89.39
2022-10-01T15:30:44.101Z,89.81
2022-10-01T15:33:47.143Z,89.47
2022-10-01T15:36:50.324Z,89.43
2022-10-01T15:39:53.638Z,89.14
2022-10-01T15:43:31.616Z,90.91
2022-10-01T15:46:35.671Z,92.21
2022-10-01T15:49:38.675Z,92.85
2022-10-01T15:52:51.038Z,93.09
2022-10-01T15:55:56.979Z,92.42
2022-10-01T15:59:16.420Z,92.03
2022-10-01T16:02:22.136Z,91.54
2022-10-01T16:05:27.911Z,91.84
2022-10-01T16:08:34.469Z,92.36
2022-10-01T16:11:56.797Z,92.45
2022-10-01T16:15:01.616Z,91.77
2022-10-01T16:18:21.873Z,92.02
2022-10-01T16:21:24.794Z,92.63
2022-10-01T16:24:28.526Z,92.38
2022-10-01T16:27:45.044Z,91.98
2022-10-01T16:30:50.536Z,91.93
2022-10-01T16:33:53.155Z,91.83
2022-10-01T16:36:55.960Z,92.27
2022-10-01T16:39:58.404Z,92.34
2022-10-01T16:43:01.278Z,91.38
2022-10-01T16:46:03.750Z,91.72
2022-10-01T16:49:14.613Z,92.19
2022-10-01T16:52:17.064Z,90.50
2022-10-01T16:55:30.619Z,90.85
2022-10-01T16:58:33.148Z,89.95
2022-10-01T17:01:36.031Z,90.05
2022-10-01T17:04:39.052Z,89.56
2022-10-01T17:07:41.806Z,90.24
2022-10-01T17:10:53.708Z,90.58
2022-10-01T17:13:56.578Z,90.63
2022-10-01T17:16:59.015Z,89.51
2022-10-01T17:20:01.988Z,87.79
2022-10-01T17:23:05.045Z,87.11
2022-10-01T17:26:08.854Z,87.41
2022-10-01T17:29:11.657Z,85.95
2022-10-01T17:32:18.689Z,85.33
2022-10-01T17:35:21.505Z,86.06
2022-10-01T17:38:24.337Z,85.78
2022-10-01T17:41:27.160Z,85.58
2022-10-01T17:44:29.971Z,85.36
2022-10-01T17:47:33.590Z,86.16
2022-10-01T17:50:43.728Z,86.18
2022-10-01T17:53:46.293Z,87.28
2022-10-01T17:56:55.258Z,87.94
2022-10-01T17:59:57.929Z,87.07
2022-10-01T18:03:01.321Z,86.85
2022-10-01T18:06:04.527Z,84.85
2022-10-01T18:09:07.664Z,83.45
2022-10-01T18:12:10.466Z,82.10
2022-10-01T18:15:13.820Z,82.38
2022-10-01T18:19:43.228Z,82.22
2022-10-01T18:21:39.007Z,83.72
2022-10-01T18:24:42.715Z,84.74
2022-10-01T18:27:46.478Z,84.85
2022-10-01T18:31:10.321Z,84.78
2022-10-01T18:34:33.240Z,85.05
2022-10-01T18:37:40.079Z,85.83
2022-10-01T18:40:46.771Z,84.99
2022-10-01T18:43:49.631Z,84.40
2022-10-01T18:47:00.300Z,82.54
2022-10-01T18:50:11.890Z,81.44
2022-10-01T18:53:36.348Z,81.67
2022-10-01T18:57:05.490Z,82.50
2022-10-01T19:00:13.581Z,83.39
2022-10-01T19:03:35.370Z,82.69
2022-10-01T19:06:50.101Z,82.28
2022-10-01T19:10:06.341Z,83.08
2022-10-01T19:13:13.768Z,82.88
2022-10-01T19:16:41.198Z,83.18
2022-10-01T19:20:02.286Z,83.51
2022-10-01T19:23:25.168Z,83.51
2022-10-01T19:26:27.694Z,84.41
2022-10-01T19:29:59.272Z,85.34
2022-10-01T19:33:11.986Z,85.57
2022-10-01T19:36:24.491Z,85.83
2022-10-01T19:39:30.075Z,86.19
2022-10-01T19:42:38.787Z,86.62
2022-10-01T19:45:55.042Z,86.36
2022-10-01T19:49:02.452Z,86.47
2022-10-01T19:52:13.333Z,86.18
2022-10-01T19:55:19.553Z,86.81
2022-10-01T19:58:22.019Z,86.23
2022-10-01T20:01:32.835Z,86.05
2022-10-01T20:04:38.328Z,86.22
2022-10-01T20:07:53.298Z,85.19
2022-10-01T20:11:14.042Z,84.73
2022-10-01T20:14:41.722Z,85.47
2022-10-01T20:17:57.789Z,86.10
2022-10-01T20:21:19.593Z,86.07
2022-10-01T20:24:49.809Z,86.14
2022-10-01T20:28:16.941Z,85.92
2022-10-01T20:31:45.045Z,85.92
2022-10-01T20:35:19.036Z,86.33
2022-10-01T20:38:24.707Z,86.42
2022-10-01T20:41:30.083Z,86.63
2022-10-01T20:44:35.666Z,86.47
2022-10-01T20:47:43.660Z,85.68
2022-10-01T20:50:50.944Z,84.20
2022-10-01T20:53:55.633Z,85.18
2022-10-01T20:57:15.483Z,85.01
2022-10-01T21:00:21.232Z,85.11
2022-10-01T21:03:28.108Z,85.27
2022-10-01T21:06:37.932Z,84.76
2022-10-01T21:09:46.556Z,84.49
2022-10-01T21:12:58.288Z,82.55
2022-10-01T21:16:23.278Z,82.87
2022-10-01T21:19:28.885Z,81.24
2022-10-01T21:22:42.904Z,80.92
2022-10-01T21:25:54.433Z,80.36
2022-10-01T21:29:17.201Z,80.23
2022-10-01T21:32:41.208Z,79.25
2022-10-01T21:35:43.960Z,78.35
2022-10-01T21:38:51.867Z,79.74
2022-10-01T21:42:03.685Z,78.61
2022-10-01T21:45:20.786Z,79.86
2022-10-01T21:48:46.999Z,78.75
2022-10-01T21:52:04.161Z,79.00
2022-10-01T21:55:27.549Z,80.13
2022-10-01T21:58:57.380Z,78.10
2022-10-01T22:02:34.755Z,77.93
2022-10-01T22:05:42.275Z,78.61
2022-10-01T22:08:51.752Z,79.27
2022-10-01T22:11:56.874Z,78.35
2022-10-01T22:14:59.935Z,78.95
2022-10-01T22:18:05.352Z,78.36
2022-10-01T22:21:11.960Z,79.41
2022-10-01T22:24:21.448Z,78.53
2022-10-01T22:27:26.399Z,78.36
2022-10-01T22:30:33.811Z,78.81
2022-10-01T22:33:44.113Z,79.48
2022-10-01T22:36:54.541Z,79.15
2022-10-01T22:40:07.384Z,79.88
2022-10-01T22:43:12.245Z,80.05
2022-10-01T22:46:23.790Z,80.45
2022-10-01T22:50:01.948Z,79.91
2022-10-01T22:53:41.662Z,79.07
2022-10-01T22:57:06.489Z,79.29
2022-10-01T23:00:12.969Z,79.33
2022-10-01T23:03:21.175Z,79.37
2022-10-01T23:06:36.053Z,78.68
2022-10-01T23:09:46.565Z,79.49
2022-10-01T23:13:10.956Z,78.91
2022-10-01T23:16:26.932Z,79.80
2022-10-01T23:19:52.360Z,79.23
2022-10-01T23:23:17.005Z,79.05
2022-10-01T23:26:22.283Z,80.25
2022-10-01T23:29:39.475Z,80.22
2022-10-01T23:33:13.125Z,80.51
2022-10-01T23:36:28.517Z,81.06
2022-10-01T23:39:52.625Z,80.25
2022-10-01T23:43:17.399Z,80.06
2022-10-01T23:46:46.813Z,80.44
2022-10-01T23:49:57.578Z,80.24
2022-10-01T23:53:08.030Z,80.10
2022-10-01T23:56:38.033Z,81.01
2022-10-01T23:59:44.884Z,79.91
